createdAt,value
2023-05-24T00:00:43.970Z,74.93
2023-05-24T00:01:43.791Z,75.48
2023-05-24T00:02:43.844Z,75.79
2023-05-24T00:03:44.077Z,75.59
2023-05-24T00:04:43.733Z,75.59
2023-05-24T00:05:43.744Z,75.79
2023-05-24T00:06:43.730Z,75.89
2023-05-24T00:07:43.725Z,75.89
2023-05-24T00:08:43.665Z,75.79
2023-05-24T00:09:43.744Z,76.30
2023-05-24T00:10:43.889Z,76.20
2023-05-24T00:11:43.657Z,76.30
2023-05-24T00:12:43.655Z,76.40
2023-05-24T00:13:43.620Z,76.50
2023-05-24T00:14:43.629Z,76.54
2023-05-24T00:15:43.636Z,76.64
2023-05-24T00:16:43.604Z,77.26
2023-05-24T00:17:43.632Z,77.56
2023-05-24T00:18:43.567Z,77.56
2023-05-24T00:19:43.628Z,77.15
2023-05-24T00:20:43.873Z,76.84
2023-05-24T00:21:43.510Z,77.05
2023-05-24T00:22:43.513Z,77.46
2023-05-24T00:23:43.527Z,77.46
2023-05-24T00:24:43.450Z,77.56
2023-05-24T00:25:43.438Z,76.84
2023-05-24T00:26:43.453Z,76.75
2023-05-24T00:27:43.456Z,76.54
2023-05-24T00:28:43.449Z,76.64
2023-05-24T00:29:43.424Z,76.54
2023-05-24T00:30:43.553Z,76.23
2023-05-24T00:31:43.453Z,76.54
2023-05-24T00:32:43.406Z,76.23
2023-05-24T00:33:43.359Z,76.03
2023-05-24T00:34:43.363Z,75.62
2023-05-24T00:35:43.335Z,75.93
2023-05-24T00:36:43.318Z,75.93
2023-05-24T00:37:51.341Z,76.13
2023-05-24T00:38:43.322Z,76.43
2023-05-24T00:39:43.322Z,76.54
2023-05-24T00:40:43.491Z,75.93
2023-05-24T00:41:43.278Z,75.93
2023-05-24T00:42:43.241Z,76.03
2023-05-24T00:43:43.268Z,76.17
2023-05-24T00:44:43.220Z,76.57
2023-05-24T00:45:43.366Z,76.68
2023-05-24T00:46:43.184Z,76.88
2023-05-24T00:47:43.210Z,76.98
2023-05-24T00:48:43.200Z,76.98
2023-05-24T00:49:43.193Z,77.09
2023-05-24T00:50:43.457Z,77.39
2023-05-24T00:51:43.153Z,77.39
2023-05-24T00:52:43.170Z,77.29
2023-05-24T00:53:43.118Z,77.19
2023-05-24T00:54:43.137Z,76.61
2023-05-24T00:55:43.067Z,76.78
2023-05-24T00:56:43.056Z,77.09
2023-05-24T00:57:43.060Z,77.23
2023-05-24T00:58:43.081Z,76.31
2023-05-24T00:59:43.080Z,76.61
2023-05-24T01:00:43.248Z,77.02
2023-05-24T01:01:43.113Z,77.53
2023-05-24T01:02:43.132Z,77.64
2023-05-24T01:03:43.032Z,78.05
2023-05-24T01:04:43.022Z,77.84
2023-05-24T01:05:42.999Z,77.43
2023-05-24T01:06:42.907Z,77.73
2023-05-24T01:07:42.933Z,77.53
2023-05-24T01:08:42.926Z,78.15
2023-05-24T01:09:42.964Z,78.56
2023-05-24T01:10:43.166Z,78.25
2023-05-24T01:11:42.867Z,78.25
2023-05-24T01:12:42.887Z,78.25
2023-05-24T01:13:42.835Z,78.05
2023-05-24T01:14:42.939Z,78.15
2023-05-24T01:15:42.954Z,78.66
2023-05-24T01:16:42.807Z,78.76
2023-05-24T01:17:42.850Z,78.97
2023-05-24T01:18:42.792Z,78.86
2023-05-24T01:19:42.758Z,78.90
2023-05-24T01:20:43.122Z,79.11
2023-05-24T01:21:42.731Z,79.72
2023-05-24T01:22:42.763Z,79.52
2023-05-24T01:23:42.714Z,79.72
2023-05-24T01:24:42.728Z,79.52
2023-05-24T01:25:42.678Z,79.31
2023-05-24T01:26:42.692Z,79.41
2023-05-24T01:27:42.656Z,79.72
2023-05-24T01:28:42.653Z,79.11
2023-05-24T01:29:42.695Z,79.00
2023-05-24T01:30:42.891Z,78.94
2023-05-24T01:31:42.691Z,79.52
2023-05-24T01:32:42.682Z,79.72
2023-05-24T01:33:42.599Z,79.75
2023-05-24T01:34:42.606Z,79.75
2023-05-24T01:35:42.589Z,79.96
2023-05-24T01:36:42.555Z,80.13
2023-05-24T01:37:42.506Z,80.13
2023-05-24T01:38:42.568Z,79.93
2023-05-24T01:39:42.524Z,79.82
2023-05-24T01:40:42.756Z,79.82
2023-05-24T01:41:42.434Z,79.96
2023-05-24T01:42:42.458Z,80.13
2023-05-24T01:43:42.456Z,80.03
2023-05-24T01:44:42.457Z,80.13
2023-05-24T01:45:42.391Z,79.96
2023-05-24T01:46:42.473Z,79.96
2023-05-24T01:47:42.455Z,79.96
2023-05-24T01:48:42.426Z,80.27
2023-05-24T01:49:42.364Z,80.27
2023-05-24T01:50:42.498Z,80.27
2023-05-24T01:51:42.417Z,80.37
2023-05-24T01:52:42.336Z,80.27
2023-05-24T01:53:42.272Z,80.27
2023-05-24T01:54:42.277Z,80.27
2023-05-24T01:55:42.302Z,80.37
2023-05-24T01:56:42.301Z,80.58
2023-05-24T01:57:42.259Z,80.78
2023-05-24T01:58:42.227Z,81.02
2023-05-24T01:59:42.247Z,81.02
2023-05-24T02:00:42.449Z,80.92
2023-05-24T02:01:42.236Z,81.02
2023-05-24T02:02:42.286Z,80.92
2023-05-24T02:03:42.161Z,81.13
2023-05-24T02:04:42.200Z,81.13
2023-05-24T02:05:42.144Z,81.34
2023-05-24T02:06:42.149Z,81.43
2023-05-24T02:07:42.114Z,81.43
2023-05-24T02:08:42.133Z,81.64
2023-05-24T02:09:42.157Z,81.74
2023-05-24T02:10:42.266Z,81.64
2023-05-24T02:11:42.078Z,81.74
2023-05-24T02:12:42.111Z,81.85
2023-05-24T02:13:42.027Z,81.85
2023-05-24T02:14:42.064Z,81.85
2023-05-24T02:15:42.140Z,81.95
2023-05-24T02:16:42.069Z,81.95
2023-05-24T02:17:42.013Z,81.95
2023-05-24T02:18:41.991Z,82.05
2023-05-24T02:19:41.978Z,82.05
2023-05-24T02:20:42.231Z,82.15
2023-05-24T02:21:41.936Z,82.05
2023-05-24T02:22:41.966Z,82.15
2023-05-24T02:23:41.966Z,82.19
2023-05-24T02:24:41.889Z,82.40
2023-05-24T02:25:41.929Z,82.36
2023-05-24T02:26:41.929Z,82.36
2023-05-24T02:27:41.827Z,82.26
2023-05-24T02:28:41.921Z,82.15
2023-05-24T02:29:41.871Z,82.15
2023-05-24T02:30:41.995Z,82.26
2023-05-24T02:31:41.842Z,82.26
2023-05-24T02:32:41.891Z,82.26
2023-05-24T02:33:41.811Z,82.56
2023-05-24T02:34:41.814Z,82.70
2023-05-24T02:35:41.791Z,82.70
2023-05-24T02:36:41.749Z,82.81
2023-05-24T02:37:41.734Z,82.81
2023-05-24T02:38:41.720Z,82.91
2023-05-24T02:39:41.736Z,83.01
2023-05-24T02:40:41.841Z,83.12
2023-05-24T02:41:41.708Z,83.12
2023-05-24T02:42:41.663Z,83.01
2023-05-24T02:43:41.634Z,83.01
2023-05-24T02:44:41.660Z,83.01
2023-05-24T02:45:41.631Z,83.01
2023-05-24T02:46:41.711Z,83.12
2023-05-24T02:47:41.636Z,83.22
2023-05-24T02:48:41.631Z,83.22
2023-05-24T02:49:41.566Z,83.22
2023-05-24T02:50:41.830Z,83.12
2023-05-24T02:51:41.539Z,83.01
2023-05-24T02:52:41.564Z,83.12
2023-05-24T02:53:41.529Z,83.12
2023-05-24T02:54:41.514Z,83.12
2023-05-24T02:55:41.474Z,83.32
2023-05-24T02:56:41.572Z,83.32
2023-05-24T02:57:41.463Z,83.32
2023-05-24T02:58:41.464Z,83.36
2023-05-24T02:59:41.464Z,83.32
2023-05-24T03:00:41.593Z,83.36
2023-05-24T03:01:41.530Z,83.46
2023-05-24T03:02:41.689Z,83.77
2023-05-24T03:03:41.641Z,83.87
2023-05-24T03:04:41.401Z,83.67
2023-05-24T03:05:41.362Z,83.63
2023-05-24T03:06:41.416Z,83.56
2023-05-24T03:07:41.319Z,83.56
2023-05-24T03:08:41.319Z,83.56
2023-05-24T03:09:41.310Z,83.67
2023-05-24T03:10:41.504Z,83.67
2023-05-24T03:11:41.315Z,83.56
2023-05-24T03:12:41.273Z,83.36
2023-05-24T03:13:41.262Z,83.26
2023-05-24T03:14:41.270Z,83.36
2023-05-24T03:15:41.236Z,83.36
2023-05-24T03:16:41.249Z,83.46
2023-05-24T03:17:41.297Z,83.46
2023-05-24T03:18:41.173Z,83.36
2023-05-24T03:19:41.192Z,83.67
2023-05-24T03:20:41.556Z,83.36
2023-05-24T03:21:41.155Z,83.26
2023-05-24T03:22:41.147Z,83.26
2023-05-24T03:23:41.141Z,83.46
2023-05-24T03:24:41.166Z,83.46
2023-05-24T03:25:41.100Z,83.46
2023-05-24T03:26:41.109Z,83.67
2023-05-24T03:27:41.050Z,83.77
2023-05-24T03:28:41.113Z,83.87
2023-05-24T03:29:41.055Z,83.98
2023-05-24T03:30:41.196Z,84.18
2023-05-24T03:31:41.110Z,84.08
2023-05-24T03:32:41.067Z,84.12
2023-05-24T03:33:41.042Z,84.12
2023-05-24T03:34:40.987Z,84.32
2023-05-24T03:35:40.999Z,84.22
2023-05-24T03:36:41.006Z,84.22
2023-05-24T03:37:40.953Z,84.22
2023-05-24T03:38:40.982Z,84.32
2023-05-24T03:39:40.920Z,84.63
2023-05-24T03:40:41.130Z,84.74
2023-05-24T03:41:40.897Z,84.74
2023-05-24T03:42:40.907Z,84.74
2023-05-24T03:43:40.908Z,84.84
2023-05-24T03:44:40.867Z,84.84
2023-05-24T03:45:41.006Z,85.04
2023-05-24T03:46:41.001Z,85.14
2023-05-24T03:47:40.895Z,85.04
2023-05-24T03:48:40.819Z,84.94
2023-05-24T03:49:40.790Z,84.84
2023-05-24T03:50:41.080Z,84.84
2023-05-24T03:51:40.768Z,84.84
2023-05-24T03:52:40.768Z,84.84
2023-05-24T03:53:40.699Z,84.74
2023-05-24T03:54:40.723Z,84.94
2023-05-24T03:55:40.684Z,85.04
2023-05-24T03:56:40.758Z,85.25
2023-05-24T03:57:40.680Z,85.04
2023-05-24T03:58:40.700Z,84.94
2023-05-24T03:59:41.409Z,84.94
2023-05-24T04:00:40.843Z,85.25
2023-05-24T04:01:40.649Z,85.66
2023-05-24T04:02:40.744Z,85.25
2023-05-24T04:03:40.709Z,85.04
2023-05-24T04:04:40.601Z,85.04
2023-05-24T04:05:40.584Z,85.28
2023-05-24T04:06:40.634Z,85.49
2023-05-24T04:07:40.564Z,85.60
2023-05-24T04:08:40.554Z,85.60
2023-05-24T04:09:40.501Z,85.49
2023-05-24T04:10:40.757Z,85.49
2023-05-24T04:11:40.545Z,85.70
2023-05-24T04:12:40.512Z,85.80
2023-05-24T04:13:40.525Z,86.00
2023-05-24T04:14:40.469Z,86.00
2023-05-24T04:15:40.446Z,86.17
2023-05-24T04:16:40.493Z,86.17
2023-05-24T04:17:40.555Z,85.97
2023-05-24T04:18:40.561Z,85.97
2023-05-24T04:19:40.408Z,85.97
2023-05-24T04:20:40.443Z,86.07
2023-05-24T04:21:40.359Z,85.97
2023-05-24T04:22:40.356Z,85.97
2023-05-24T04:23:40.302Z,86.07
2023-05-24T04:24:40.393Z,86.07
2023-05-24T04:25:40.310Z,86.07
2023-05-24T04:26:40.369Z,86.27
2023-05-24T04:27:40.302Z,86.38
2023-05-24T04:28:40.258Z,86.27
2023-05-24T04:29:40.275Z,86.33
2023-05-24T04:30:40.435Z,86.44
2023-05-24T04:31:40.303Z,86.44
2023-05-24T04:32:40.291Z,86.24
2023-05-24T04:33:40.220Z,86.33
2023-05-24T04:34:40.183Z,86.33
2023-05-24T04:35:40.191Z,86.54
2023-05-24T04:36:40.288Z,86.33
2023-05-24T04:37:40.126Z,86.44
2023-05-24T04:38:40.152Z,86.65
2023-05-24T04:39:40.145Z,86.75
2023-05-24T04:40:40.342Z,86.85
2023-05-24T04:41:40.131Z,86.85
2023-05-24T04:42:40.076Z,86.95
2023-05-24T04:43:40.073Z,87.02
2023-05-24T04:44:40.133Z,87.02
2023-05-24T04:45:40.063Z,86.91
2023-05-24T04:46:40.095Z,87.02
2023-05-24T04:47:40.107Z,87.12
2023-05-24T04:48:40.040Z,87.22
2023-05-24T04:49:40.013Z,87.22
2023-05-24T04:50:40.138Z,87.43
2023-05-24T04:51:39.985Z,87.43
2023-05-24T04:52:40.036Z,87.43
2023-05-24T04:53:39.981Z,87.43
2023-05-24T04:54:39.956Z,87.43
2023-05-24T04:55:39.930Z,87.43
2023-05-24T04:56:39.895Z,87.53
2023-05-24T04:57:39.874Z,87.73
2023-05-24T04:58:39.969Z,87.84
2023-05-24T04:59:39.860Z,87.79
2023-05-24T05:00:39.994Z,87.70
2023-05-24T05:01:39.951Z,87.59
2023-05-24T05:02:39.957Z,87.28
2023-05-24T05:03:39.911Z,87.18
2023-05-24T05:04:39.837Z,87.08
2023-05-24T05:05:39.789Z,87.18
2023-05-24T05:06:39.801Z,87.08
2023-05-24T05:07:39.769Z,86.98
2023-05-24T05:08:39.787Z,86.87
2023-05-24T05:09:39.755Z,86.98
2023-05-24T05:10:39.725Z,86.93
2023-05-24T05:11:39.808Z,87.04
2023-05-24T05:12:39.693Z,87.04
2023-05-24T05:13:39.728Z,87.14
2023-05-24T05:14:39.712Z,87.34
2023-05-24T05:15:41.595Z,87.45
2023-05-24T05:16:39.753Z,87.45
2023-05-24T05:17:39.712Z,87.45
2023-05-24T05:18:39.668Z,87.24
2023-05-24T05:19:39.601Z,87.45
2023-05-24T05:20:39.796Z,87.34
2023-05-24T05:21:39.623Z,87.14
2023-05-24T05:22:39.583Z,86.93
2023-05-24T05:23:39.587Z,87.04
2023-05-24T05:24:39.525Z,87.24
2023-05-24T05:25:39.530Z,87.24
2023-05-24T05:26:39.536Z,87.04
2023-05-24T05:27:39.529Z,86.73
2023-05-24T05:28:39.504Z,86.79
2023-05-24T05:29:39.503Z,86.99
2023-05-24T05:30:39.469Z,87.20
2023-05-24T05:31:39.581Z,87.20
2023-05-24T05:32:39.525Z,86.90
2023-05-24T05:33:39.539Z,86.58
2023-05-24T05:34:39.414Z,86.38
2023-05-24T05:35:39.422Z,86.28
2023-05-24T05:36:39.440Z,86.38
2023-05-24T05:37:39.369Z,86.79
2023-05-24T05:38:39.361Z,86.38
2023-05-24T05:39:39.391Z,86.18
2023-05-24T05:40:39.394Z,86.38
2023-05-24T05:41:39.325Z,86.07
2023-05-24T05:42:39.364Z,85.77
2023-05-24T05:43:39.330Z,85.97
2023-05-24T05:44:39.333Z,85.87
2023-05-24T05:45:39.333Z,85.72
2023-05-24T05:46:39.363Z,85.93
2023-05-24T05:47:39.298Z,86.14
2023-05-24T05:48:39.211Z,86.24
2023-05-24T05:49:39.217Z,85.93
2023-05-24T05:50:39.232Z,85.93
2023-05-24T05:51:39.204Z,86.34
2023-05-24T05:52:39.192Z,86.34
2023-05-24T05:53:39.203Z,86.34
2023-05-24T05:54:39.156Z,86.44
2023-05-24T05:55:39.160Z,86.20
2023-05-24T05:56:39.096Z,85.79
2023-05-24T05:57:39.179Z,85.58
2023-05-24T05:58:39.141Z,85.79
2023-05-24T05:59:39.118Z,85.89
2023-05-24T06:00:39.049Z,85.69
2023-05-24T06:01:39.095Z,84.97
2023-05-24T06:02:39.123Z,84.66
2023-05-24T06:03:39.333Z,84.15
2023-05-24T06:04:39.218Z,84.46
2023-05-24T06:05:39.012Z,84.97
2023-05-24T06:06:38.992Z,85.38
2023-05-24T06:07:39.059Z,84.77
2023-05-24T06:08:39.007Z,84.11
2023-05-24T06:09:39.022Z,84.11
2023-05-24T06:10:38.998Z,83.81
2023-05-24T06:11:38.970Z,83.09
2023-05-24T06:12:38.913Z,82.98
2023-05-24T06:13:38.916Z,83.29
2023-05-24T06:14:38.886Z,82.78
2023-05-24T06:15:38.996Z,82.64
2023-05-24T06:16:38.950Z,82.27
2023-05-24T06:17:38.847Z,82.48
2023-05-24T06:18:39.164Z,82.57
2023-05-24T06:19:38.830Z,82.68
2023-05-24T06:20:38.942Z,82.95
2023-05-24T06:21:38.800Z,83.56
2023-05-24T06:22:38.779Z,83.87
2023-05-24T06:23:38.774Z,83.52
2023-05-24T06:24:38.790Z,82.81
2023-05-24T06:25:38.776Z,83.01
2023-05-24T06:26:38.754Z,83.32
2023-05-24T06:27:38.813Z,82.87
2023-05-24T06:28:38.753Z,82.46
2023-05-24T06:29:38.707Z,82.46
2023-05-24T06:30:38.852Z,82.05
2023-05-24T06:31:38.751Z,81.74
2023-05-24T06:32:38.980Z,82.15
2023-05-24T06:33:39.846Z,82.05
2023-05-24T06:34:38.716Z,81.95
2023-05-24T06:35:38.685Z,81.95
2023-05-24T06:36:38.623Z,82.15
2023-05-24T06:37:38.746Z,82.05
2023-05-24T06:38:46.517Z,81.44
2023-05-24T06:39:38.547Z,81.65
2023-05-24T06:40:38.572Z,81.60
2023-05-24T06:41:40.355Z,81.20
2023-05-24T06:42:38.566Z,81.24
2023-05-24T06:43:38.541Z,80.93
2023-05-24T06:44:38.475Z,80.42
2023-05-24T06:45:38.465Z,80.32
2023-05-24T06:46:38.514Z,80.62
2023-05-24T06:47:38.572Z,80.58
2023-05-24T06:48:38.592Z,80.38
2023-05-24T06:49:38.443Z,80.48
2023-05-24T06:50:40.242Z,80.58
2023-05-24T06:51:38.448Z,80.99
2023-05-24T06:52:38.461Z,81.10
2023-05-24T06:53:38.388Z,81.26
2023-05-24T06:54:38.371Z,81.26
2023-05-24T06:55:38.351Z,80.96
2023-05-24T06:56:38.365Z,80.65
2023-05-24T06:57:38.387Z,80.24
2023-05-24T06:58:38.312Z,80.24
2023-05-24T06:59:38.315Z,80.34
2023-05-24T07:00:38.282Z,80.24
2023-05-24T07:01:38.314Z,80.65
2023-05-24T07:02:38.294Z,80.14
2023-05-24T07:03:38.244Z,80.65
2023-05-24T07:04:38.288Z,80.71
2023-05-24T07:05:38.268Z,80.91
2023-05-24T07:06:38.232Z,80.82
2023-05-24T07:07:38.206Z,80.82
2023-05-24T07:08:38.153Z,79.96
2023-05-24T07:09:38.152Z,79.45
2023-05-24T07:10:38.149Z,79.66
2023-05-24T07:11:38.230Z,79.45
2023-05-24T07:12:38.158Z,79.55
2023-05-24T07:13:38.122Z,79.45
2023-05-24T07:14:38.121Z,78.74
2023-05-24T07:15:38.111Z,78.64
2023-05-24T07:16:38.106Z,78.64
2023-05-24T07:17:38.098Z,78.80
2023-05-24T07:18:38.045Z,77.98
2023-05-24T07:19:38.040Z,78.30
2023-05-24T07:20:38.114Z,77.78
2023-05-24T07:21:38.008Z,78.30
2023-05-24T07:22:38.040Z,77.58
2023-05-24T07:23:37.983Z,76.97
2023-05-24T07:24:37.956Z,76.56
2023-05-24T07:25:37.970Z,76.66
2023-05-24T07:26:37.970Z,75.92
2023-05-24T07:27:37.921Z,74.99
2023-05-24T07:28:37.940Z,74.99
2023-05-24T07:29:37.902Z,74.35
2023-05-24T07:30:37.922Z,73.02
2023-05-24T07:31:37.893Z,73.13
2023-05-24T07:32:38.036Z,73.43
2023-05-24T07:33:37.952Z,74.11
2023-05-24T07:34:37.851Z,72.86
2023-05-24T07:35:37.841Z,72.96
2023-05-24T07:36:37.789Z,73.54
2023-05-24T07:37:37.876Z,71.70
2023-05-24T07:38:37.834Z,70.21
2023-05-24T07:39:37.762Z,70.95
2023-05-24T07:40:37.775Z,71.60
2023-05-24T07:41:37.763Z,71.70
2023-05-24T07:42:37.728Z,72.41
2023-05-24T07:43:37.796Z,72.82
2023-05-24T07:44:37.707Z,74.15
2023-05-24T07:45:37.714Z,71.91
2023-05-24T07:46:37.765Z,72.24
2023-05-24T07:47:37.771Z,72.92
2023-05-24T07:48:37.655Z,71.60
2023-05-24T07:49:37.643Z,71.56
2023-05-24T07:50:37.625Z,71.47
2023-05-24T07:51:37.626Z,70.86
2023-05-24T07:52:37.628Z,70.45
2023-05-24T07:53:37.694Z,69.73
2023-05-24T07:54:37.566Z,69.63
2023-05-24T07:55:37.581Z,70.75
2023-05-24T07:56:37.531Z,70.75
2023-05-24T07:57:37.627Z,69.93
2023-05-24T07:58:37.529Z,69.23
2023-05-24T07:59:37.535Z,69.90
2023-05-24T08:00:37.589Z,70.38
2023-05-24T08:01:37.592Z,70.18
2023-05-24T08:02:37.530Z,68.52
2023-05-24T08:03:37.498Z,68.82
2023-05-24T08:04:37.450Z,68.82
2023-05-24T08:05:37.468Z,68.32
2023-05-24T08:06:37.451Z,68.01
2023-05-24T08:07:37.420Z,68.89
2023-05-24T08:08:37.728Z,67.88
2023-05-24T08:09:37.388Z,67.88
2023-05-24T08:10:37.380Z,68.25
2023-05-24T08:11:37.374Z,68.45
2023-05-24T08:12:37.342Z,68.55
2023-05-24T08:13:37.330Z,66.66
2023-05-24T08:14:37.308Z,67.40
2023-05-24T08:15:37.327Z,67.63
2023-05-24T08:16:37.303Z,68.24
2023-05-24T08:17:37.392Z,69.77
2023-05-24T08:18:37.236Z,70.38
2023-05-24T08:19:37.273Z,69.70
2023-05-24T08:20:37.264Z,70.41
2023-05-24T08:21:37.222Z,70.62
2023-05-24T08:22:37.191Z,70.92
2023-05-24T08:23:37.202Z,71.73
2023-05-24T08:24:37.144Z,70.92
2023-05-24T08:25:37.206Z,71.43
2023-05-24T08:26:37.139Z,72.04
2023-05-24T08:27:37.190Z,71.23
2023-05-24T08:28:37.171Z,71.02
2023-05-24T08:29:37.107Z,71.67
2023-05-24T08:30:37.129Z,71.97
2023-05-24T08:31:37.144Z,71.50
2023-05-24T08:32:37.109Z,72.01
2023-05-24T08:33:37.086Z,72.82
2023-05-24T08:34:37.019Z,72.62
2023-05-24T08:35:37.052Z,73.02
2023-05-24T08:36:37.032Z,73.67
2023-05-24T08:37:37.033Z,73.88
2023-05-24T08:38:36.975Z,73.26
2023-05-24T08:39:36.993Z,73.84
2023-05-24T08:40:36.948Z,73.64
2023-05-24T08:41:36.949Z,73.64
2023-05-24T08:42:36.917Z,73.64
2023-05-24T08:43:36.946Z,74.04
2023-05-24T08:44:36.899Z,74.82
2023-05-24T08:45:36.950Z,73.10
2023-05-24T08:46:36.962Z,72.62
2023-05-24T08:47:36.916Z,71.60
2023-05-24T08:48:36.953Z,71.91
2023-05-24T08:49:36.898Z,72.72
2023-05-24T08:50:36.838Z,72.78
2023-05-24T08:51:36.841Z,73.19
2023-05-24T08:52:36.857Z,72.99
2023-05-24T08:53:36.781Z,71.77
2023-05-24T08:54:36.809Z,71.47
2023-05-24T08:55:36.785Z,71.47
2023-05-24T08:56:36.765Z,72.38
2023-05-24T08:57:36.733Z,72.45
2023-05-24T08:58:36.699Z,71.84
2023-05-24T08:59:36.722Z,71.64
2023-05-24T09:00:36.733Z,72.55
2023-05-24T09:01:36.924Z,72.45
2023-05-24T09:02:36.712Z,73.36
2023-05-24T09:03:36.809Z,72.62
2023-05-24T09:04:36.689Z,72.82
2023-05-24T09:05:36.684Z,73.23
2023-05-24T09:06:36.619Z,71.91
2023-05-24T09:07:36.673Z,69.87
2023-05-24T09:08:36.615Z,70.10
2023-05-24T09:09:36.591Z,71.02
2023-05-24T09:10:49.258Z,70.89
2023-05-24T09:11:39.483Z,71.09
2023-05-24T09:12:38.787Z,71.19
2023-05-24T09:13:36.547Z,71.40
2023-05-24T09:14:36.503Z,70.79
2023-05-24T09:15:36.611Z,70.51
2023-05-24T09:16:36.528Z,71.53
2023-05-24T09:17:36.772Z,71.33
2023-05-24T09:18:36.492Z,70.89
2023-05-24T09:19:36.454Z,70.58
2023-05-24T09:20:36.477Z,70.38
2023-05-24T09:21:36.600Z,70.58
2023-05-24T09:22:39.577Z,70.14
2023-05-24T09:23:36.381Z,71.84
2023-05-24T09:24:36.429Z,70.89
2023-05-24T09:25:36.386Z,67.74
2023-05-24T09:26:36.395Z,67.54
2023-05-24T09:27:36.380Z,68.35
2023-05-24T09:28:36.338Z,68.22
2023-05-24T09:29:36.326Z,67.41
2023-05-24T09:30:36.317Z,66.08
2023-05-24T09:31:36.314Z,65.58
2023-05-24T09:32:36.338Z,65.27
2023-05-24T09:33:36.344Z,66.49
2023-05-24T09:34:36.263Z,65.37
2023-05-24T09:35:36.220Z,65.81
2023-05-24T09:36:36.216Z,66.52
2023-05-24T09:37:36.220Z,67.03
2023-05-24T09:38:36.835Z,66.52
2023-05-24T09:39:36.162Z,66.83
2023-05-24T09:40:36.224Z,67.13
2023-05-24T09:41:36.361Z,66.42
2023-05-24T09:42:36.188Z,66.22
2023-05-24T09:43:36.197Z,65.30
2023-05-24T09:44:36.124Z,65.51
2023-05-24T09:45:36.135Z,65.71
2023-05-24T09:46:36.164Z,66.02
2023-05-24T09:47:36.143Z,66.52
2023-05-24T09:48:36.117Z,67.13
2023-05-24T09:49:36.068Z,67.74
2023-05-24T09:50:36.029Z,65.71
2023-05-24T09:51:36.097Z,65.91
2023-05-24T09:52:36.188Z,65.03
2023-05-24T09:53:36.028Z,64.93
2023-05-24T09:54:36.028Z,65.81
2023-05-24T09:55:35.988Z,67.33
2023-05-24T09:56:36.038Z,66.49
2023-05-24T09:57:35.978Z,66.08
2023-05-24T09:58:35.991Z,65.07
2023-05-24T09:59:35.916Z,64.56
2023-05-24T10:00:35.944Z,64.39
2023-05-24T10:01:35.926Z,64.87
2023-05-24T10:02:45.110Z,65.37
2023-05-24T10:03:36.991Z,64.56
2023-05-24T10:04:35.940Z,63.58
2023-05-24T10:05:35.869Z,64.70
2023-05-24T10:06:35.927Z,65.41
2023-05-24T10:07:35.908Z,65.88
2023-05-24T10:08:35.838Z,66.69
2023-05-24T10:09:35.800Z,64.15
2023-05-24T10:10:35.783Z,64.26
2023-05-24T10:11:35.826Z,65.27
2023-05-24T10:12:35.800Z,63.68
2023-05-24T10:13:35.966Z,64.39
2023-05-24T10:14:35.781Z,64.49
2023-05-24T10:15:35.727Z,64.97
2023-05-24T10:16:35.743Z,64.97
2023-05-24T10:17:35.758Z,64.15
2023-05-24T10:18:35.707Z,65.27
2023-05-24T10:19:35.681Z,66.08
2023-05-24T10:20:35.683Z,66.80
2023-05-24T10:21:35.764Z,66.19
2023-05-24T10:22:35.644Z,65.99
2023-05-24T10:23:35.658Z,66.60
2023-05-24T10:24:35.638Z,66.49
2023-05-24T10:25:35.599Z,65.68
2023-05-24T10:26:35.649Z,65.68
2023-05-24T10:27:35.598Z,65.99
2023-05-24T10:28:35.557Z,66.39
2023-05-24T10:29:35.518Z,65.58
2023-05-24T10:30:35.637Z,66.08
2023-05-24T10:31:35.629Z,66.49
2023-05-24T10:32:35.534Z,67.07
2023-05-24T10:33:35.527Z,65.65
2023-05-24T10:34:35.478Z,65.95
2023-05-24T10:35:35.425Z,65.34
2023-05-24T10:36:35.481Z,65.34
2023-05-24T10:37:35.417Z,64.94
2023-05-24T10:38:35.499Z,64.23
2023-05-24T10:39:35.442Z,63.39
2023-05-24T10:40:35.400Z,63.39
2023-05-24T10:41:35.382Z,64.30
2023-05-24T10:42:35.383Z,66.19
2023-05-24T10:43:35.391Z,65.59
2023-05-24T10:44:35.365Z,65.89
2023-05-24T10:45:35.330Z,66.37
2023-05-24T10:46:35.399Z,64.44
2023-05-24T10:47:36.958Z,63.56
2023-05-24T10:48:35.321Z,63.96
2023-05-24T10:49:35.301Z,64.67
2023-05-24T10:50:35.283Z,63.66
2023-05-24T10:51:35.257Z,64.20
2023-05-24T10:52:35.310Z,63.59
2023-05-24T10:53:35.275Z,63.82
2023-05-24T10:54:35.249Z,64.33
2023-05-24T10:55:35.220Z,65.45
2023-05-24T10:56:35.186Z,66.02
2023-05-24T10:57:35.174Z,65.52
2023-05-24T10:58:35.196Z,65.11
2023-05-24T10:59:35.243Z,64.58
2023-05-24T11:00:36.196Z,65.18
2023-05-24T11:01:35.193Z,64.27
2023-05-24T11:02:35.183Z,63.18
2023-05-24T11:03:35.082Z,64.50
2023-05-24T11:04:35.100Z,65.11
2023-05-24T11:05:35.116Z,64.20
2023-05-24T11:06:35.051Z,64.98
2023-05-24T11:07:35.076Z,65.28
2023-05-24T11:08:35.115Z,64.47
2023-05-24T11:09:35.153Z,65.48
2023-05-24T11:10:35.006Z,64.17
2023-05-24T11:11:34.987Z,64.07
2023-05-24T11:12:35.054Z,64.58
2023-05-24T11:13:34.980Z,63.56
2023-05-24T11:14:34.975Z,63.56
2023-05-24T11:15:34.942Z,63.69
2023-05-24T11:16:34.991Z,64.10
2023-05-24T11:17:34.962Z,63.29
2023-05-24T11:18:34.901Z,63.29
2023-05-24T11:19:34.876Z,63.39
2023-05-24T11:20:34.977Z,63.79
2023-05-24T11:21:34.852Z,63.79
2023-05-24T11:22:34.956Z,63.49
2023-05-24T11:23:37.401Z,63.69
2023-05-24T11:24:34.830Z,63.49
2023-05-24T11:25:34.788Z,62.98
2023-05-24T11:26:34.803Z,63.39
2023-05-24T11:27:34.785Z,63.46
2023-05-24T11:28:34.913Z,63.66
2023-05-24T11:29:36.853Z,63.15
2023-05-24T11:30:34.754Z,63.35
2023-05-24T11:31:36.762Z,64.07
2023-05-24T11:32:34.778Z,65.08
2023-05-24T11:33:34.696Z,62.98
2023-05-24T11:34:34.667Z,63.18
2023-05-24T11:35:34.682Z,63.29
2023-05-24T11:36:34.680Z,64.20
2023-05-24T11:37:45.509Z,64.81
2023-05-24T11:38:35.682Z,64.50
2023-05-24T11:39:34.637Z,63.89
2023-05-24T11:40:34.603Z,64.61
2023-05-24T11:41:34.659Z,62.88
2023-05-24T11:42:34.591Z,62.81
2023-05-24T11:43:34.565Z,62.81
2023-05-24T11:44:34.568Z,63.32
2023-05-24T11:45:34.561Z,63.72
2023-05-24T11:46:34.515Z,63.75
2023-05-24T11:47:34.593Z,62.53
2023-05-24T11:48:35.445Z,62.74
2023-05-24T11:49:34.466Z,63.24
2023-05-24T11:50:42.198Z,64.56
2023-05-24T11:51:35.474Z,63.65
2023-05-24T11:52:34.471Z,62.94
2023-05-24T11:53:34.456Z,63.34
2023-05-24T11:54:34.438Z,63.88
2023-05-24T11:55:34.399Z,65.00
2023-05-24T11:56:34.582Z,65.41
2023-05-24T11:57:34.386Z,66.22
2023-05-24T11:58:34.426Z,66.32
2023-05-24T11:59:34.352Z,66.72
2023-05-24T12:00:34.347Z,66.32
2023-05-24T12:01:34.306Z,66.42
2023-05-24T12:02:34.411Z,66.32
2023-05-24T12:03:34.563Z,66.63
2023-05-24T12:04:34.327Z,67.54
2023-05-24T12:05:34.280Z,66.52
2023-05-24T12:06:35.265Z,66.93
2023-05-24T12:07:34.273Z,67.24
2023-05-24T12:08:34.280Z,67.94
2023-05-24T12:09:34.240Z,66.83
2023-05-24T12:10:34.207Z,67.33
2023-05-24T12:11:34.205Z,67.54
2023-05-24T12:12:42.473Z,66.32
2023-05-24T12:13:35.208Z,66.72
2023-05-24T12:14:34.612Z,67.13
2023-05-24T12:15:34.225Z,66.93
2023-05-24T12:16:34.174Z,66.80
2023-05-24T12:17:34.147Z,67.10
2023-05-24T12:18:34.171Z,68.01
2023-05-24T12:19:34.248Z,67.00
2023-05-24T12:20:34.167Z,65.68
2023-05-24T12:21:34.043Z,65.27
2023-05-24T12:22:34.094Z,64.46
2023-05-24T12:23:34.056Z,64.36
2023-05-24T12:24:34.050Z,64.64
2023-05-24T12:25:34.011Z,64.94
2023-05-24T12:26:34.012Z,64.03
2023-05-24T12:27:34.290Z,62.88
2023-05-24T12:28:33.989Z,63.39
2023-05-24T12:29:33.971Z,63.49
2023-05-24T12:30:33.948Z,63.76
2023-05-24T12:31:33.964Z,63.46
2023-05-24T12:32:33.977Z,62.92
2023-05-24T12:33:33.932Z,60.79
2023-05-24T12:34:33.914Z,61.40
2023-05-24T12:35:33.875Z,60.28
2023-05-24T12:36:33.969Z,60.79
2023-05-24T12:37:33.864Z,60.59
2023-05-24T12:38:33.902Z,60.28
2023-05-24T12:39:33.835Z,60.69
2023-05-24T12:40:33.842Z,61.20
2023-05-24T12:41:33.817Z,61.00
2023-05-24T12:42:33.782Z,60.66
2023-05-24T12:43:33.786Z,61.07
2023-05-24T12:44:33.833Z,60.77
2023-05-24T12:45:33.759Z,59.85
2023-05-24T12:46:33.786Z,59.75
2023-05-24T12:47:33.773Z,60.46
2023-05-24T12:48:33.728Z,60.77
2023-05-24T12:49:33.710Z,60.66
2023-05-24T12:50:33.679Z,61.58
2023-05-24T12:51:33.647Z,62.15
2023-05-24T12:52:33.809Z,60.74